createdAt,value
2019-05-26T00:00:19.198Z,13.93
2019-05-26T00:02:50.887Z,13.73
2019-05-26T00:05:22.459Z,14.70
2019-05-26T00:07:54.070Z,18.17
2019-05-26T00:10:25.629Z,14.03
2019-05-26T00:12:57.183Z,13.53
2019-05-26T00:15:28.773Z,10.93
2019-05-26T00:18:00.336Z,11.80
2019-05-26T00:20:32.019Z,13.17
2019-05-26T00:23:03.661Z,15.00
2019-05-26T00:25:35.262Z,14.47
2019-05-26T00:28:06.886Z,15.30
2019-05-26T00:30:38.558Z,14.30
2019-05-26T00:33:11.118Z,14.13
2019-05-26T00:35:42.728Z,25.50
2019-05-26T00:38:14.299Z,19.13
2019-05-26T00:40:45.924Z,27.47
2019-05-26T00:43:17.901Z,23.10
2019-05-26T00:45:50.114Z,17.90
2019-05-26T00:48:21.692Z,22.40
2019-05-26T00:50:54.253Z,22.53
2019-05-26T00:53:25.814Z,40.27
2019-05-26T00:55:57.409Z,20.63
2019-05-26T00:58:28.995Z,37.73
2019-05-26T01:01:00.913Z,18.10
2019-05-26T01:03:32.536Z,32.13
2019-05-26T01:06:04.124Z,18.53
2019-05-26T01:08:35.692Z,16.23
2019-05-26T01:11:07.286Z,15.63
2019-05-26T01:13:38.866Z,15.93
2019-05-26T01:16:10.474Z,18.20
2019-05-26T01:18:42.062Z,19.90
2019-05-26T01:21:13.627Z,17.67
2019-05-26T01:23:45.305Z,33.70
2019-05-26T01:26:16.879Z,19.20
2019-05-26T01:28:48.460Z,39.57
2019-05-26T01:31:20.031Z,18.67
2019-05-26T01:33:51.630Z,17.80
2019-05-26T01:36:23.280Z,20.20
2019-05-26T01:38:56.039Z,14.43
2019-05-26T01:41:27.649Z,12.73
2019-05-26T01:43:59.228Z,21.60
2019-05-26T01:46:30.801Z,27.53
2019-05-26T01:49:02.356Z,22.33
2019-05-26T01:51:33.942Z,17.20
2019-05-26T01:54:05.591Z,12.57
2019-05-26T01:56:37.236Z,15.03
2019-05-26T01:59:08.818Z,11.57
2019-05-26T02:01:40.406Z,10.53
2019-05-26T02:04:11.989Z,11.03
2019-05-26T02:06:43.568Z,10.10
2019-05-26T02:09:16.215Z,10.57
2019-05-26T02:11:47.813Z,9.57
2019-05-26T02:14:19.370Z,10.83
2019-05-26T02:16:50.966Z,11.97
2019-05-26T02:19:22.524Z,11.50
2019-05-26T02:21:54.095Z,15.63
2019-05-26T02:24:25.658Z,23.40
2019-05-26T02:26:57.234Z,21.37
2019-05-26T02:29:28.851Z,13.67
2019-05-26T02:32:00.427Z,12.10
2019-05-26T02:34:32.007Z,18.43
2019-05-26T02:37:03.606Z,20.17
2019-05-26T02:39:35.197Z,27.30
2019-05-26T02:42:07.053Z,15.33
2019-05-26T02:44:38.626Z,22.40
2019-05-26T02:47:10.211Z,53.87
2019-05-26T02:49:41.793Z,44.13
2019-05-26T02:52:13.396Z,17.80
2019-05-26T02:54:44.970Z,24.63
2019-05-26T02:57:16.552Z,30.13
2019-05-26T02:59:48.099Z,30.23
2019-05-26T03:02:19.792Z,20.33
2019-05-26T03:04:51.383Z,21.43
2019-05-26T03:07:24.456Z,22.77
2019-05-26T03:09:57.909Z,16.67
2019-05-26T03:12:31.798Z,23.93
2019-05-26T03:15:04.481Z,28.37
2019-05-26T03:17:36.237Z,17.93
2019-05-26T03:20:08.214Z,32.47
2019-05-26T03:22:42.748Z,39.33
2019-05-26T03:25:14.556Z,20.60
2019-05-26T03:27:46.404Z,20.23
2019-05-26T03:30:17.984Z,22.63
2019-05-26T03:32:49.581Z,24.83
2019-05-26T03:35:21.175Z,27.67
2019-05-26T03:37:52.764Z,21.33
2019-05-26T03:40:24.321Z,18.27
2019-05-26T03:42:55.904Z,32.80
2019-05-26T03:46:03.370Z,19.47
2019-05-26T03:48:34.972Z,20.40
2019-05-26T03:51:06.569Z,34.87
2019-05-26T03:53:38.134Z,18.87
2019-05-26T03:56:09.741Z,32.90
2019-05-26T03:58:41.321Z,20.37
2019-05-26T04:01:12.911Z,18.43
2019-05-26T04:03:44.482Z,24.73
2019-05-26T04:06:16.171Z,24.73
2019-05-26T04:08:47.745Z,25.17
2019-05-26T04:11:19.304Z,17.20
2019-05-26T04:13:50.898Z,23.00
2019-05-26T04:16:22.445Z,26.77
2019-05-26T04:18:54.032Z,18.13
2019-05-26T04:21:25.576Z,18.90
2019-05-26T04:23:57.160Z,21.20
2019-05-26T04:26:28.718Z,27.47
2019-05-26T04:29:00.312Z,20.27
2019-05-26T04:31:31.879Z,18.53
2019-05-26T04:34:03.459Z,12.50
2019-05-26T04:36:35.057Z,19.43
2019-05-26T04:39:08.162Z,20.80
2019-05-26T04:41:39.739Z,14.57
2019-05-26T04:44:11.315Z,16.43
2019-05-26T04:46:42.879Z,17.43
2019-05-26T04:49:15.607Z,18.53
2019-05-26T04:51:47.179Z,15.80
2019-05-26T04:54:18.737Z,21.50
2019-05-26T04:56:50.343Z,18.27
2019-05-26T04:59:21.947Z,14.20
2019-05-26T05:01:53.512Z,17.23
2019-05-26T05:04:25.084Z,17.03
2019-05-26T05:06:56.683Z,13.60
2019-05-26T05:09:28.256Z,13.60
2019-05-26T05:11:59.821Z,24.13
2019-05-26T05:14:31.380Z,10.60
2019-05-26T05:17:02.957Z,12.10
2019-05-26T05:19:34.615Z,16.80
2019-05-26T05:22:06.225Z,13.67
2019-05-26T05:24:37.776Z,13.40
2019-05-26T05:27:09.378Z,21.87
2019-05-26T05:29:40.938Z,14.40
2019-05-26T05:32:12.518Z,14.13
2019-05-26T05:34:44.081Z,16.10
2019-05-26T05:37:15.779Z,18.63
2019-05-26T05:39:47.333Z,29.83
2019-05-26T05:42:18.932Z,28.70
2019-05-26T05:44:50.504Z,25.57
2019-05-26T05:47:22.082Z,27.33
2019-05-26T05:49:53.679Z,21.33
2019-05-26T05:52:25.264Z,20.57
2019-05-26T05:54:56.877Z,17.00
2019-05-26T05:57:28.466Z,16.40
2019-05-26T06:00:00.020Z,16.07
2019-05-26T06:02:31.583Z,13.57
2019-05-26T06:05:03.174Z,13.13
2019-05-26T06:07:35.723Z,12.27
2019-05-26T06:10:08.365Z,12.17
2019-05-26T06:12:39.953Z,12.27
2019-05-26T06:15:14.378Z,11.27
2019-05-26T06:17:46.339Z,10.90
2019-05-26T06:20:18.051Z,11.60
2019-05-26T06:22:49.646Z,11.77
2019-05-26T06:25:22.815Z,11.83
2019-05-26T06:27:54.385Z,11.90
2019-05-26T06:30:26.467Z,12.00
2019-05-26T06:32:58.115Z,11.27
2019-05-26T06:35:32.665Z,12.30
2019-05-26T06:38:02.949Z,13.43
2019-05-26T06:40:34.534Z,12.20
2019-05-26T06:43:06.092Z,12.80
2019-05-26T06:45:37.772Z,14.80
2019-05-26T06:48:09.299Z,15.27
2019-05-26T06:50:40.892Z,16.33
2019-05-26T06:53:12.479Z,16.47
2019-05-26T06:55:44.090Z,15.27
2019-05-26T06:58:15.731Z,16.30
2019-05-26T07:00:47.337Z,14.60
2019-05-26T07:03:18.945Z,15.90
2019-05-26T07:05:50.554Z,14.77
2019-05-26T07:08:22.118Z,14.40
2019-05-26T07:10:53.710Z,15.27
2019-05-26T07:13:25.271Z,15.60
2019-05-26T07:15:56.854Z,13.97
2019-05-26T07:18:28.465Z,14.23
2019-05-26T07:21:00.074Z,14.23
2019-05-26T07:23:31.720Z,14.27
2019-05-26T07:26:03.277Z,15.57
2019-05-26T07:28:34.879Z,13.17
2019-05-26T07:31:06.594Z,14.73
2019-05-26T07:33:39.248Z,14.10
2019-05-26T07:36:10.839Z,13.87
2019-05-26T07:38:42.437Z,14.03
2019-05-26T07:41:14.040Z,13.73
2019-05-26T07:43:45.653Z,13.63
2019-05-26T07:46:17.254Z,12.73
2019-05-26T07:48:48.832Z,13.50
2019-05-26T07:51:21.580Z,13.50
2019-05-26T07:53:56.125Z,12.90
2019-05-26T07:56:26.697Z,13.73
2019-05-26T07:58:58.289Z,12.60
2019-05-26T08:01:35.815Z,13.10
2019-05-26T08:04:03.152Z,13.93
2019-05-26T08:06:34.741Z,13.27
2019-05-26T08:09:09.328Z,12.90
2019-05-26T08:11:40.963Z,13.60
2019-05-26T08:14:12.535Z,14.93
2019-05-26T08:16:44.181Z,13.43
2019-05-26T08:19:15.764Z,12.20
2019-05-26T08:21:47.422Z,15.90
2019-05-26T08:24:19.002Z,13.50
2019-05-26T08:26:50.600Z,12.23
2019-05-26T08:29:22.170Z,13.37
2019-05-26T08:31:53.778Z,12.27
2019-05-26T08:34:25.383Z,12.50
2019-05-26T08:36:58.073Z,13.27
2019-05-26T08:39:29.688Z,11.90
2019-05-26T08:42:01.281Z,12.87
2019-05-26T08:44:32.944Z,13.27
2019-05-26T08:47:04.536Z,12.90
2019-05-26T08:49:36.129Z,11.90
2019-05-26T08:52:07.710Z,13.10
2019-05-26T08:54:39.329Z,13.00
2019-05-26T08:57:10.891Z,15.63
2019-05-26T08:59:42.489Z,13.67
2019-05-26T09:02:14.075Z,13.10
2019-05-26T09:04:45.732Z,12.80
2019-05-26T09:07:17.345Z,12.47
2019-05-26T09:09:48.987Z,11.67
2019-05-26T09:12:20.625Z,11.93
2019-05-26T09:14:52.265Z,12.30
2019-05-26T09:17:23.880Z,12.27
2019-05-26T09:19:55.487Z,12.73
2019-05-26T09:22:27.115Z,11.93
2019-05-26T09:24:58.730Z,11.70
2019-05-26T09:27:30.322Z,10.90
2019-05-26T09:30:01.942Z,13.97
2019-05-26T09:32:34.613Z,12.00
2019-05-26T09:35:07.286Z,10.50
2019-05-26T09:37:38.868Z,10.83
2019-05-26T09:40:11.146Z,10.40
2019-05-26T09:42:42.888Z,9.50
2019-05-26T09:45:16.091Z,9.03
2019-05-26T09:47:47.781Z,9.43
2019-05-26T09:50:19.377Z,9.33
2019-05-26T09:52:51.066Z,9.60
2019-05-26T09:55:23.990Z,9.20
2019-05-26T09:57:55.611Z,9.83
2019-05-26T10:00:27.489Z,10.23
2019-05-26T10:02:59.131Z,10.30
2019-05-26T10:05:30.697Z,9.17
2019-05-26T10:08:02.341Z,8.60
2019-05-26T10:10:33.965Z,8.80
2019-05-26T10:13:05.568Z,8.83
2019-05-26T10:15:37.146Z,10.70
2019-05-26T10:18:08.747Z,11.33
2019-05-26T10:20:40.349Z,10.70
2019-05-26T10:23:11.949Z,12.47
2019-05-26T10:25:43.827Z,11.90
2019-05-26T10:28:15.413Z,11.63
2019-05-26T10:30:46.971Z,11.50
2019-05-26T10:33:18.587Z,11.70
2019-05-26T10:35:50.182Z,9.47
2019-05-26T10:38:21.801Z,9.17
2019-05-26T10:40:53.684Z,9.20
2019-05-26T10:43:25.303Z,7.17
2019-05-26T10:45:56.943Z,8.00
2019-05-26T10:48:28.615Z,8.27
2019-05-26T10:51:00.185Z,9.03
2019-05-26T10:53:32.843Z,9.20
2019-05-26T10:56:04.427Z,10.50
2019-05-26T10:58:36.112Z,9.10
2019-05-26T11:01:07.684Z,8.90
2019-05-26T11:03:39.278Z,9.23
2019-05-26T11:06:10.867Z,8.87
2019-05-26T11:08:42.460Z,8.60
2019-05-26T11:11:14.060Z,11.00
2019-05-26T11:13:45.656Z,10.73
2019-05-26T11:16:17.269Z,9.40
2019-05-26T11:18:48.863Z,8.87
2019-05-26T11:21:20.470Z,8.50
2019-05-26T11:23:52.077Z,8.20
2019-05-26T11:26:23.631Z,8.43
2019-05-26T11:28:55.251Z,8.77
2019-05-26T11:31:26.884Z,8.03
2019-05-26T11:33:58.473Z,8.70
2019-05-26T11:36:30.062Z,7.43
2019-05-26T11:39:01.655Z,8.63
2019-05-26T11:41:34.515Z,7.70
2019-05-26T11:44:17.649Z,7.47
2019-05-26T11:46:39.776Z,7.60
2019-05-26T11:49:11.394Z,7.90
2019-05-26T11:51:43.005Z,7.20
2019-05-26T11:54:14.582Z,8.03
2019-05-26T11:56:46.159Z,7.77
2019-05-26T11:59:17.862Z,8.70
2019-05-26T12:01:49.489Z,11.13
2019-05-26T12:04:21.123Z,8.23
2019-05-26T12:06:52.758Z,7.87
2019-05-26T12:09:24.360Z,6.97
2019-05-26T12:11:55.955Z,8.30
2019-05-26T12:14:34.840Z,8.63
2019-05-26T12:17:00.865Z,8.60
2019-05-26T12:19:32.453Z,7.67
2019-05-26T12:22:04.063Z,7.73
2019-05-26T12:24:35.707Z,8.17
2019-05-26T12:27:07.586Z,7.60
2019-05-26T12:29:39.230Z,7.93
2019-05-26T12:32:10.829Z,9.60
2019-05-26T12:34:42.399Z,6.90
2019-05-26T12:37:13.952Z,7.97
2019-05-26T12:39:45.559Z,6.63
2019-05-26T12:42:17.329Z,6.70
2019-05-26T12:44:50.173Z,6.77
2019-05-26T12:47:21.895Z,6.63
2019-05-26T12:49:53.512Z,7.00
2019-05-26T12:52:25.381Z,7.10
2019-05-26T12:54:57.000Z,7.63
2019-05-26T12:57:28.592Z,6.23
2019-05-26T13:00:00.217Z,6.30
2019-05-26T13:02:31.876Z,6.93
2019-05-26T13:05:03.461Z,7.40
2019-05-26T13:07:35.049Z,6.77
2019-05-26T13:10:07.362Z,6.37
2019-05-26T13:12:38.954Z,6.60
2019-05-26T13:15:11.963Z,6.27
2019-05-26T13:17:43.531Z,6.70
2019-05-26T13:20:16.657Z,6.00
2019-05-26T13:22:48.220Z,6.80
2019-05-26T13:25:21.140Z,6.17
2019-05-26T13:27:52.729Z,6.60
2019-05-26T13:30:24.999Z,6.30
2019-05-26T13:32:56.603Z,6.17
2019-05-26T13:35:28.189Z,6.30
2019-05-26T13:37:59.799Z,6.50
2019-05-26T13:40:31.397Z,6.73
2019-05-26T13:43:03.009Z,6.23
2019-05-26T13:45:34.623Z,5.70
2019-05-26T13:48:06.345Z,6.50
2019-05-26T13:50:37.948Z,6.37
2019-05-26T13:53:10.619Z,5.40
2019-05-26T13:55:42.179Z,5.67
2019-05-26T13:58:13.806Z,5.50
2019-05-26T14:00:45.404Z,7.83
2019-05-26T14:03:18.114Z,5.60
2019-05-26T14:05:49.745Z,5.20
2019-05-26T14:08:21.371Z,5.40
2019-05-26T14:10:53.107Z,5.17
2019-05-26T14:13:25.155Z,4.40
2019-05-26T14:15:57.134Z,5.10
2019-05-26T14:18:31.875Z,4.37
2019-05-26T14:21:03.493Z,3.93
2019-05-26T14:23:35.097Z,4.40
2019-05-26T14:26:06.741Z,3.87
2019-05-26T14:28:38.354Z,4.13
2019-05-26T14:31:10.035Z,3.60
2019-05-26T14:33:41.634Z,3.90
2019-05-26T14:36:13.251Z,4.80
2019-05-26T14:38:44.962Z,4.97
2019-05-26T14:41:16.563Z,4.10
2019-05-26T14:43:48.137Z,5.77
2019-05-26T14:46:19.747Z,4.00
2019-05-26T14:48:51.379Z,3.73
2019-05-26T14:51:22.964Z,3.67
2019-05-26T14:53:54.564Z,3.60
2019-05-26T14:56:26.205Z,4.37
2019-05-26T14:58:57.805Z,3.90
2019-05-26T15:01:29.560Z,3.30
2019-05-26T15:04:01.140Z,3.50
2019-05-26T15:06:32.854Z,3.40
2019-05-26T15:09:05.802Z,4.00
2019-05-26T15:11:38.479Z,3.50
2019-05-26T15:14:10.083Z,3.23
2019-05-26T15:16:41.684Z,3.27
2019-05-26T15:19:13.285Z,3.10
2019-05-26T15:21:45.854Z,3.40
2019-05-26T15:24:17.436Z,3.30
2019-05-26T15:26:49.021Z,3.37
2019-05-26T15:29:20.603Z,3.60
2019-05-26T15:31:53.316Z,3.03
2019-05-26T15:34:24.946Z,3.27
2019-05-26T15:36:56.525Z,3.23
2019-05-26T15:39:28.140Z,4.00
2019-05-26T15:41:59.711Z,3.50
2019-05-26T15:44:31.341Z,4.10
2019-05-26T15:47:02.999Z,3.33
2019-05-26T15:49:34.641Z,3.10
2019-05-26T15:52:06.236Z,3.33
2019-05-26T15:54:37.857Z,3.33
2019-05-26T15:57:09.450Z,4.03
2019-05-26T15:59:41.059Z,3.77
2019-05-26T16:02:12.683Z,3.80
2019-05-26T16:04:45.708Z,3.43
2019-05-26T16:07:17.390Z,3.53
2019-05-26T16:09:49.056Z,3.70
2019-05-26T16:12:20.648Z,3.93
2019-05-26T16:14:52.256Z,4.37
2019-05-26T16:17:23.859Z,4.10
2019-05-26T16:19:55.476Z,4.07
2019-05-26T16:22:27.080Z,4.90
2019-05-26T16:24:58.685Z,4.20
2019-05-26T16:27:30.468Z,3.57
2019-05-26T16:30:02.087Z,3.63
2019-05-26T16:32:33.748Z,3.30
2019-05-26T16:35:05.486Z,3.50
2019-05-26T16:37:37.166Z,3.50
2019-05-26T16:40:10.351Z,3.63
2019-05-26T16:42:41.978Z,3.30
2019-05-26T16:45:14.709Z,5.20
2019-05-26T16:47:46.326Z,4.10
2019-05-26T16:50:18.039Z,3.17
2019-05-26T16:52:49.670Z,4.37
2019-05-26T16:55:21.321Z,4.00
2019-05-26T16:57:53.119Z,3.67
2019-05-26T17:00:25.622Z,3.10
2019-05-26T17:02:57.237Z,4.33
2019-05-26T17:05:29.013Z,6.03
2019-05-26T17:08:00.693Z,4.20
2019-05-26T17:10:32.621Z,3.10
2019-05-26T17:13:04.212Z,4.50
2019-05-26T17:15:36.799Z,3.80
2019-05-26T17:18:09.415Z,4.00
2019-05-26T17:20:41.019Z,4.30
2019-05-26T17:23:12.636Z,6.30
2019-05-26T17:25:44.260Z,3.70
2019-05-26T17:28:15.885Z,3.80
2019-05-26T17:30:47.515Z,6.40
2019-05-26T17:33:19.172Z,3.60
2019-05-26T17:35:50.752Z,4.20
2019-05-26T17:38:22.359Z,4.10
2019-05-26T17:40:54.014Z,5.63
2019-05-26T17:43:25.633Z,3.67
2019-05-26T17:45:57.239Z,3.53
2019-05-26T17:48:28.847Z,4.17
2019-05-26T17:51:00.516Z,3.40
2019-05-26T17:53:32.141Z,3.60
2019-05-26T17:56:03.734Z,5.60
2019-05-26T17:58:35.378Z,4.30
2019-05-26T18:01:06.959Z,4.03
2019-05-26T18:03:38.612Z,3.37
2019-05-26T18:06:11.353Z,3.60
2019-05-26T18:08:43.059Z,4.13
2019-05-26T18:11:14.674Z,5.10
2019-05-26T18:13:46.789Z,4.40
2019-05-26T18:16:18.572Z,4.03
2019-05-26T18:18:50.245Z,4.03
2019-05-26T18:21:21.909Z,3.70
2019-05-26T18:23:53.518Z,4.23
2019-05-26T18:26:25.157Z,5.43
2019-05-26T18:28:56.762Z,3.60
2019-05-26T18:31:29.298Z,4.00
2019-05-26T18:34:02.270Z,3.63
2019-05-26T18:36:33.877Z,3.07
2019-05-26T18:39:07.379Z,3.17
2019-05-26T18:41:39.004Z,3.80
2019-05-26T18:44:10.655Z,3.30
2019-05-26T18:46:42.257Z,2.90
2019-05-26T18:49:13.909Z,3.20
2019-05-26T18:51:45.504Z,3.40
2019-05-26T18:54:17.162Z,2.87
2019-05-26T18:56:48.763Z,3.30
2019-05-26T18:59:20.440Z,3.33
2019-05-26T19:01:52.056Z,3.80
2019-05-26T19:04:23.666Z,3.67
2019-05-26T19:06:55.276Z,3.73
2019-05-26T19:09:26.917Z,3.13
2019-05-26T19:11:58.533Z,4.03
2019-05-26T19:14:30.219Z,3.73
2019-05-26T19:17:01.854Z,3.83
2019-05-26T19:19:33.649Z,3.37
2019-05-26T19:22:05.284Z,3.57
2019-05-26T19:24:36.937Z,3.83
2019-05-26T19:27:08.635Z,3.43
2019-05-26T19:29:41.326Z,4.87
2019-05-26T19:32:13.003Z,5.33
2019-05-26T19:34:44.700Z,4.60
2019-05-26T19:37:16.325Z,4.50
2019-05-26T19:39:47.937Z,4.63
2019-05-26T19:42:20.027Z,5.80
2019-05-26T19:44:51.623Z,4.93
2019-05-26T19:47:23.256Z,5.20
2019-05-26T19:49:54.868Z,5.57
2019-05-26T19:52:26.477Z,5.23
2019-05-26T19:54:58.078Z,5.17
2019-05-26T19:57:29.788Z,4.80
2019-05-26T20:00:03.132Z,5.13
2019-05-26T20:02:36.540Z,4.20
2019-05-26T20:05:09.494Z,4.93
2019-05-26T20:07:41.196Z,4.40
2019-05-26T20:10:13.627Z,5.40
2019-05-26T20:12:45.265Z,5.20
2019-05-26T20:15:17.088Z,5.23
2019-05-26T20:17:48.703Z,6.10
2019-05-26T20:20:22.099Z,6.40
2019-05-26T20:22:53.767Z,5.20
2019-05-26T20:25:25.389Z,5.40
2019-05-26T20:27:56.993Z,5.67
2019-05-26T20:30:28.744Z,5.37
2019-05-26T20:33:00.473Z,5.30
2019-05-26T20:35:32.095Z,6.47
2019-05-26T20:38:03.709Z,5.43
2019-05-26T20:40:35.392Z,5.40
2019-05-26T20:43:06.999Z,5.10
2019-05-26T20:45:38.675Z,5.30
2019-05-26T20:48:10.381Z,6.20
2019-05-26T20:50:42.019Z,5.70
2019-05-26T20:53:13.691Z,4.70
2019-05-26T20:55:45.630Z,7.10
2019-05-26T20:58:17.260Z,5.23
2019-05-26T21:00:48.837Z,5.47
2019-05-26T21:03:20.465Z,5.00
2019-05-26T21:05:52.044Z,5.40
2019-05-26T21:08:23.684Z,5.10
2019-05-26T21:10:55.270Z,9.07
2019-05-26T21:13:26.889Z,6.10
2019-05-26T21:15:58.489Z,8.53
2019-05-26T21:18:30.103Z,7.03
2019-05-26T21:21:01.693Z,8.50
2019-05-26T21:23:33.266Z,7.43
2019-05-26T21:26:04.856Z,6.80
2019-05-26T21:28:36.429Z,5.93
2019-05-26T21:31:08.022Z,6.00
2019-05-26T21:33:39.618Z,7.03
2019-05-26T21:36:11.213Z,7.30
2019-05-26T21:38:42.778Z,6.33
2019-05-26T21:41:15.381Z,6.13
2019-05-26T21:43:46.945Z,6.57
2019-05-26T21:46:18.547Z,6.57
2019-05-26T21:48:50.120Z,6.13
2019-05-26T21:51:21.803Z,6.10
2019-05-26T21:53:53.365Z,6.40
2019-05-26T21:56:24.974Z,6.10
2019-05-26T21:58:56.544Z,5.47
2019-05-26T22:01:28.398Z,6.47
2019-05-26T22:03:59.962Z,6.73
2019-05-26T22:06:31.576Z,6.67
2019-05-26T22:09:03.180Z,6.83
2019-05-26T22:11:34.813Z,7.10
2019-05-26T22:14:06.370Z,6.07
2019-05-26T22:16:39.050Z,6.70
2019-05-26T22:19:10.673Z,6.83
2019-05-26T22:21:42.278Z,7.17
2019-05-26T22:24:13.888Z,6.90
2019-05-26T22:26:45.449Z,6.80
2019-05-26T22:29:17.042Z,6.83
2019-05-26T22:31:48.666Z,8.00
2019-05-26T22:34:20.246Z,7.17
2019-05-26T22:36:51.843Z,6.90
2019-05-26T22:39:23.421Z,6.77
2019-05-26T22:41:55.016Z,9.90
2019-05-26T22:44:26.601Z,6.57
2019-05-26T22:46:58.291Z,7.27
2019-05-26T22:49:29.846Z,7.23
2019-05-26T22:52:01.421Z,7.03
2019-05-26T22:54:32.990Z,6.57
2019-05-26T22:57:04.592Z,7.00
2019-05-26T22:59:36.169Z,8.47
2019-05-26T23:02:07.757Z,7.70
2019-05-26T23:04:39.348Z,6.93
2019-05-26T23:07:10.940Z,7.97
2019-05-26T23:09:42.512Z,7.83
2019-05-26T23:12:14.080Z,8.47
2019-05-26T23:14:45.633Z,7.20
2019-05-26T23:17:17.187Z,7.20
2019-05-26T23:19:48.766Z,7.53
2019-05-26T23:22:20.330Z,7.53
2019-05-26T23:24:51.894Z,7.80
2019-05-26T23:27:23.497Z,7.70
2019-05-26T23:29:55.065Z,7.10
2019-05-26T23:32:26.669Z,7.20
2019-05-26T23:34:58.243Z,8.10
2019-05-26T23:37:29.786Z,6.60
2019-05-26T23:40:01.391Z,7.27
2019-05-26T23:42:33.008Z,7.40
2019-05-26T23:45:04.749Z,8.10
2019-05-26T23:47:36.443Z,10.83
2019-05-26T23:50:08.104Z,7.33
2019-05-26T23:52:39.673Z,7.77
2019-05-26T23:55:11.543Z,7.73
2019-05-26T23:57:43.110Z,7.70
